createdAt,value
2018-04-07T00:01:32.176Z,4.10
2018-04-07T00:03:59.725Z,4.77
2018-04-07T00:06:27.292Z,4.47
2018-04-07T00:08:54.826Z,4.53
2018-04-07T00:11:23.144Z,3.90
2018-04-07T00:13:50.687Z,5.00
2018-04-07T00:16:19.008Z,4.17
2018-04-07T00:18:46.545Z,3.97
2018-04-07T00:21:14.875Z,4.53
2018-04-07T00:23:42.420Z,3.90
2018-04-07T00:26:09.976Z,4.10
2018-04-07T00:28:38.280Z,4.27
2018-04-07T00:31:05.837Z,4.17
2018-04-07T00:33:34.148Z,4.23
2018-04-07T00:36:01.712Z,4.10
2018-04-07T00:38:29.318Z,4.30
2018-04-07T00:40:56.876Z,3.80
2018-04-07T00:43:24.412Z,4.33
2018-04-07T00:45:52.735Z,3.40
2018-04-07T00:48:20.279Z,4.17
2018-04-07T00:50:48.609Z,4.50
2018-04-07T00:53:16.152Z,5.00
2018-04-07T00:55:43.684Z,3.80
2018-04-07T00:58:11.247Z,3.23
2018-04-07T01:00:38.789Z,4.70
2018-04-07T01:03:06.349Z,3.77
2018-04-07T01:05:33.885Z,3.73
2018-04-07T01:08:02.225Z,3.87
2018-04-07T01:10:29.764Z,3.13
2018-04-07T01:12:58.089Z,3.80
2018-04-07T01:15:25.620Z,3.07
2018-04-07T01:17:53.948Z,3.47
2018-04-07T01:20:21.489Z,3.60
2018-04-07T01:22:49.048Z,3.43
2018-04-07T01:25:17.354Z,3.10
2018-04-07T01:27:44.921Z,3.50
2018-04-07T01:30:12.465Z,3.87
2018-04-07T01:32:40.029Z,3.30
2018-04-07T01:35:07.575Z,4.00
2018-04-07T01:37:35.149Z,3.90
2018-04-07T01:40:02.707Z,3.50
2018-04-07T01:42:30.292Z,3.50
2018-04-07T01:44:57.828Z,3.03
2018-04-07T01:47:25.397Z,3.50
2018-04-07T01:49:52.933Z,3.13
2018-04-07T01:52:20.497Z,3.13
2018-04-07T01:54:48.820Z,3.67
2018-04-07T01:57:17.144Z,3.97
2018-04-07T01:59:44.696Z,4.20
2018-04-07T02:02:12.261Z,3.60
2018-04-07T02:04:39.808Z,3.53
2018-04-07T02:07:08.151Z,3.77
2018-04-07T02:09:35.693Z,3.90
2018-04-07T02:12:03.236Z,4.10
2018-04-07T02:14:30.809Z,4.17
2018-04-07T02:16:58.344Z,4.37
2018-04-07T02:19:25.917Z,3.47
2018-04-07T02:21:53.456Z,4.77
2018-04-07T02:24:21.067Z,3.57
2018-04-07T02:26:48.769Z,3.20
2018-04-07T02:29:16.332Z,4.50
2018-04-07T02:31:43.888Z,4.37
2018-04-07T02:34:11.444Z,4.43
2018-04-07T02:36:38.987Z,3.77
2018-04-07T02:39:06.549Z,3.90
2018-04-07T02:41:34.859Z,4.07
2018-04-07T02:44:02.420Z,5.60
2018-04-07T02:46:29.964Z,4.23
2018-04-07T02:48:58.291Z,4.30
2018-04-07T02:51:25.835Z,4.30
2018-04-07T02:53:53.398Z,4.07
2018-04-07T02:56:21.706Z,4.47
2018-04-07T02:58:49.264Z,4.53
2018-04-07T03:01:17.572Z,4.73
2018-04-07T03:03:45.197Z,5.20
2018-04-07T03:06:12.704Z,4.77
2018-04-07T03:08:41.028Z,5.03
2018-04-07T03:11:08.583Z,4.27
2018-04-07T03:13:36.156Z,4.97
2018-04-07T03:16:03.700Z,5.20
2018-04-07T03:18:32.027Z,5.20
2018-04-07T03:20:59.569Z,5.13
2018-04-07T03:23:27.876Z,5.40
2018-04-07T03:25:55.424Z,5.53
2018-04-07T03:28:23.750Z,6.00
2018-04-07T03:30:51.311Z,5.50
2018-04-07T03:33:18.848Z,4.93
2018-04-07T03:35:47.241Z,5.97
2018-04-07T03:38:15.552Z,6.27
2018-04-07T03:40:43.116Z,5.17
2018-04-07T03:43:10.661Z,4.80
2018-04-07T03:45:38.220Z,5.70
2018-04-07T03:48:05.769Z,6.83
2018-04-07T03:50:33.336Z,5.83
2018-04-07T03:53:00.891Z,6.67
2018-04-07T03:55:28.449Z,6.40
2018-04-07T03:57:55.992Z,5.77
2018-04-07T04:00:23.552Z,5.97
2018-04-07T04:02:51.088Z,5.97
2018-04-07T04:05:18.695Z,5.53
2018-04-07T04:07:46.219Z,6.97
2018-04-07T04:10:13.784Z,5.23
2018-04-07T04:12:41.392Z,5.37
2018-04-07T04:15:08.954Z,5.07
2018-04-07T04:17:36.500Z,5.80
2018-04-07T04:20:04.073Z,6.77
2018-04-07T04:22:31.615Z,7.70
2018-04-07T04:24:59.946Z,5.53
2018-04-07T04:27:27.493Z,6.37
2018-04-07T04:29:55.815Z,5.90
2018-04-07T04:32:23.367Z,6.07
2018-04-07T04:34:50.940Z,7.20
2018-04-07T04:37:18.484Z,6.33
2018-04-07T04:39:46.024Z,6.40
2018-04-07T04:42:13.580Z,5.50
2018-04-07T04:44:41.115Z,5.87
2018-04-07T04:47:08.669Z,6.63
2018-04-07T04:49:36.970Z,6.27
2018-04-07T04:52:05.291Z,6.20
2018-04-07T04:54:32.863Z,5.53
2018-04-07T04:57:00.428Z,5.87
2018-04-07T04:59:27.966Z,5.40
2018-04-07T05:01:56.289Z,6.10
2018-04-07T05:04:23.824Z,6.33
2018-04-07T05:06:52.144Z,6.30
2018-04-07T05:09:19.685Z,6.00
2018-04-07T05:11:48.012Z,6.40
2018-04-07T05:14:15.558Z,6.47
2018-04-07T05:16:44.100Z,6.07
2018-04-07T05:19:11.640Z,6.93
2018-04-07T05:21:39.196Z,7.70
2018-04-07T05:24:06.736Z,7.60
2018-04-07T05:26:34.299Z,6.50
2018-04-07T05:29:01.844Z,7.40
2018-04-07T05:31:29.405Z,6.47
2018-04-07T05:33:56.940Z,7.07
2018-04-07T05:36:25.261Z,8.20
2018-04-07T05:38:52.805Z,7.43
2018-04-07T05:41:21.140Z,7.80
2018-04-07T05:43:48.681Z,7.03
2018-04-07T05:46:16.244Z,7.37
2018-04-07T05:48:44.549Z,7.83
2018-04-07T05:51:12.108Z,7.30
2018-04-07T05:53:39.649Z,6.50
2018-04-07T05:56:07.192Z,6.87
2018-04-07T05:58:34.756Z,6.37
2018-04-07T06:01:02.304Z,6.93
2018-04-07T06:03:29.877Z,6.63
2018-04-07T06:05:57.421Z,7.00
2018-04-07T06:08:24.976Z,6.30
2018-04-07T06:10:52.519Z,7.03
2018-04-07T06:13:20.082Z,6.23
2018-04-07T06:15:47.631Z,6.13
2018-04-07T06:18:15.192Z,6.97
2018-04-07T06:20:42.732Z,5.60
2018-04-07T06:23:10.297Z,6.60
2018-04-07T06:25:37.844Z,6.87
2018-04-07T06:28:05.400Z,6.30
2018-04-07T06:30:32.951Z,5.83
2018-04-07T06:33:00.512Z,6.23
2018-04-07T06:35:28.824Z,6.07
2018-04-07T06:37:56.388Z,5.57
2018-04-07T06:40:23.940Z,7.17
2018-04-07T06:42:52.264Z,6.87
2018-04-07T06:45:19.808Z,6.70
2018-04-07T06:47:48.133Z,6.27
2018-04-07T06:50:15.694Z,6.37
2018-04-07T06:52:45.482Z,6.93
2018-04-07T06:55:13.060Z,6.63
2018-04-07T06:57:41.381Z,7.33
2018-04-07T07:00:08.926Z,6.60
2018-04-07T07:02:37.258Z,6.50
2018-04-07T07:05:04.969Z,6.73
2018-04-07T07:07:32.518Z,6.70
2018-04-07T07:10:00.842Z,7.97
2018-04-07T07:12:28.389Z,7.03
2018-04-07T07:14:55.941Z,6.83
2018-04-07T07:17:24.262Z,6.80
2018-04-07T07:19:51.826Z,7.47
2018-04-07T07:22:19.377Z,6.80
2018-04-07T07:24:46.941Z,7.00
2018-04-07T07:27:14.518Z,7.00
2018-04-07T07:29:42.085Z,6.47
2018-04-07T07:32:09.632Z,7.33
2018-04-07T07:34:37.212Z,6.70
2018-04-07T07:37:04.765Z,6.70
2018-04-07T07:39:32.328Z,6.50
2018-04-07T07:42:00.650Z,7.33
2018-04-07T07:44:28.224Z,6.87
2018-04-07T07:46:55.812Z,6.57
2018-04-07T07:49:23.381Z,6.70
2018-04-07T07:51:50.929Z,7.83
2018-04-07T07:54:18.497Z,7.03
2018-04-07T07:56:46.040Z,6.93
2018-04-07T07:59:14.372Z,6.20
2018-04-07T08:01:41.923Z,6.57
2018-04-07T08:04:09.485Z,6.60
2018-04-07T08:06:37.029Z,7.40
2018-04-07T08:09:04.596Z,8.27
2018-04-07T08:11:32.154Z,6.10
2018-04-07T08:13:59.724Z,7.80
2018-04-07T08:16:27.274Z,6.33
2018-04-07T08:18:54.820Z,7.07
2018-04-07T08:21:22.384Z,7.10
2018-04-07T08:23:49.947Z,6.73
2018-04-07T08:26:18.280Z,6.77
2018-04-07T08:28:45.829Z,7.37
2018-04-07T08:31:13.403Z,6.97
2018-04-07T08:33:40.973Z,6.50
2018-04-07T08:36:08.781Z,6.73
2018-04-07T08:38:36.328Z,6.30
2018-04-07T08:41:03.901Z,6.63
2018-04-07T08:43:31.448Z,6.67
2018-04-07T08:45:59.776Z,7.20
2018-04-07T08:48:27.328Z,7.37
2018-04-07T08:50:54.890Z,6.10
2018-04-07T08:53:22.458Z,6.60
2018-04-07T08:55:50.032Z,8.80
2018-04-07T08:58:17.601Z,6.70
2018-04-07T09:00:45.168Z,7.37
2018-04-07T09:03:12.725Z,6.13
2018-04-07T09:05:41.056Z,6.93
2018-04-07T09:08:08.628Z,7.07
2018-04-07T09:10:36.187Z,8.30
2018-04-07T09:13:03.742Z,6.90
2018-04-07T09:15:32.073Z,6.43
2018-04-07T09:18:02.376Z,6.77
2018-04-07T09:20:29.943Z,5.60
2018-04-07T09:22:57.485Z,7.00
2018-04-07T09:25:25.058Z,6.40
2018-04-07T09:27:52.620Z,6.27
2018-04-07T09:30:20.182Z,7.93
2018-04-07T09:32:52.476Z,6.40
2018-04-07T09:35:20.116Z,6.40
2018-04-07T09:37:47.718Z,6.80
2018-04-07T09:40:15.494Z,6.17
2018-04-07T09:42:43.832Z,7.10
2018-04-07T09:45:11.401Z,5.90
2018-04-07T09:47:38.951Z,5.70
2018-04-07T09:50:07.393Z,7.93
2018-04-07T09:52:34.946Z,6.20
2018-04-07T09:55:02.532Z,6.80
2018-04-07T09:57:30.096Z,5.73
2018-04-07T09:59:57.641Z,6.37
2018-04-07T10:02:25.977Z,5.70
2018-04-07T10:04:53.516Z,6.67
2018-04-07T10:07:21.901Z,7.27
2018-04-07T10:09:50.210Z,6.70
2018-04-07T10:12:17.778Z,8.00
2018-04-07T10:14:45.331Z,8.10
2018-04-07T10:17:13.081Z,6.80
2018-04-07T10:19:40.629Z,6.70
2018-04-07T10:22:08.210Z,7.53
2018-04-07T10:24:42.085Z,8.03
2018-04-07T10:27:16.269Z,7.43
2018-04-07T10:29:44.073Z,6.70
2018-04-07T10:32:11.649Z,8.30
2018-04-07T10:34:39.956Z,7.90
2018-04-07T10:37:07.521Z,7.50
2018-04-07T10:39:35.104Z,7.60
2018-04-07T10:42:02.685Z,7.93
2018-04-07T10:44:30.236Z,7.83
2018-04-07T10:46:57.806Z,8.30
2018-04-07T10:49:25.376Z,8.20
2018-04-07T10:51:53.050Z,6.73
2018-04-07T10:54:20.607Z,6.40
2018-04-07T10:56:48.939Z,7.13
2018-04-07T10:59:16.494Z,7.27
2018-04-07T11:01:44.058Z,7.30
2018-04-07T11:04:11.602Z,7.20
2018-04-07T11:06:39.941Z,7.30
2018-04-07T11:09:07.505Z,7.80
2018-04-07T11:11:35.063Z,7.43
2018-04-07T11:14:02.806Z,7.87
2018-04-07T11:16:31.145Z,7.50
2018-04-07T11:18:58.689Z,8.60
2018-04-07T11:21:26.264Z,7.70
2018-04-07T11:23:54.359Z,7.17
2018-04-07T11:26:21.953Z,7.70
2018-04-07T11:28:49.507Z,8.03
2018-04-07T11:31:17.133Z,7.90
2018-04-07T11:33:45.468Z,8.40
2018-04-07T11:36:13.303Z,7.50
2018-04-07T11:38:40.904Z,7.60
2018-04-07T11:41:08.734Z,7.80
2018-04-07T11:43:36.327Z,8.20
2018-04-07T11:46:03.872Z,8.30
2018-04-07T11:48:31.436Z,8.30
2018-04-07T11:50:58.975Z,7.80
2018-04-07T11:53:26.532Z,8.27
2018-04-07T11:55:54.854Z,8.23
2018-04-07T11:58:22.445Z,8.17
2018-04-07T12:00:50.130Z,8.90
2018-04-07T12:03:17.936Z,7.60
2018-04-07T12:05:45.690Z,8.60
2018-04-07T12:08:14.812Z,7.77
2018-04-07T12:10:43.289Z,9.00
2018-04-07T12:13:10.857Z,9.03
2018-04-07T12:15:38.524Z,8.97
2018-04-07T12:18:06.214Z,8.47
2018-04-07T12:20:33.845Z,8.70
2018-04-07T12:23:01.472Z,8.30
2018-04-07T12:25:29.034Z,7.80
2018-04-07T12:27:57.376Z,8.47
2018-04-07T12:30:25.051Z,7.80
2018-04-07T12:32:52.643Z,8.60
2018-04-07T12:35:20.225Z,8.50
2018-04-07T12:37:47.877Z,8.30
2018-04-07T12:40:16.220Z,8.57
2018-04-07T12:42:44.568Z,8.63
2018-04-07T12:45:12.270Z,8.40
2018-04-07T12:47:39.957Z,7.67
2018-04-07T12:50:07.652Z,9.27
2018-04-07T12:52:35.238Z,8.60
2018-04-07T12:55:02.781Z,8.87
2018-04-07T12:57:31.112Z,8.73
2018-04-07T12:59:58.661Z,9.03
2018-04-07T13:02:26.228Z,8.10
2018-04-07T13:04:54.549Z,7.60
2018-04-07T13:07:22.175Z,8.13
2018-04-07T13:09:49.720Z,7.70
2018-04-07T13:12:17.292Z,9.67
2018-04-07T13:14:45.614Z,7.77
2018-04-07T13:17:13.358Z,8.73
2018-04-07T13:19:41.236Z,7.80
2018-04-07T13:22:08.803Z,7.93
2018-04-07T13:24:36.640Z,8.33
2018-04-07T13:27:04.606Z,8.47
2018-04-07T13:29:33.323Z,8.30
2018-04-07T13:32:01.432Z,8.80
2018-04-07T13:34:29.020Z,8.73
2018-04-07T13:36:57.337Z,8.27
2018-04-07T13:39:25.672Z,8.80
2018-04-07T13:41:53.214Z,9.13
2018-04-07T13:44:21.536Z,8.20
2018-04-07T13:46:49.092Z,9.50
2018-04-07T13:49:16.656Z,8.63
2018-04-07T13:51:44.228Z,9.20
2018-04-07T13:54:11.797Z,7.77
2018-04-07T13:56:39.344Z,8.27
2018-04-07T13:59:06.910Z,8.07
2018-04-07T14:01:34.460Z,7.80
2018-04-07T14:04:02.030Z,7.80
2018-04-07T14:06:29.571Z,8.17
2018-04-07T14:08:57.141Z,7.53
2018-04-07T14:11:24.701Z,7.83
2018-04-07T14:13:52.287Z,7.60
2018-04-07T14:16:19.836Z,8.07
2018-04-07T14:18:48.170Z,8.33
2018-04-07T14:21:15.723Z,8.00
2018-04-07T14:23:43.309Z,8.33
2018-04-07T14:26:10.910Z,7.90
2018-04-07T14:28:39.256Z,7.70
2018-04-07T14:31:06.799Z,8.40
2018-04-07T14:33:35.132Z,8.37
2018-04-07T14:36:02.680Z,8.50
2018-04-07T14:38:30.245Z,6.70
2018-04-07T14:40:57.797Z,7.87
2018-04-07T14:43:26.101Z,8.10
2018-04-07T14:45:53.668Z,9.67
2018-04-07T14:48:21.984Z,7.43
2018-04-07T14:50:49.579Z,7.70
2018-04-07T14:53:17.124Z,7.43
2018-04-07T14:55:44.686Z,8.20
2018-04-07T14:58:12.236Z,7.30
2018-04-07T15:00:40.573Z,7.50
2018-04-07T15:03:08.117Z,8.40
2018-04-07T15:05:35.684Z,7.40
2018-04-07T15:08:03.227Z,8.60
2018-04-07T15:10:30.809Z,7.13
2018-04-07T15:12:59.128Z,8.10
2018-04-07T15:15:26.692Z,8.13
2018-04-07T15:17:54.275Z,8.27
2018-04-07T15:20:22.142Z,7.60
2018-04-07T15:22:49.685Z,8.50
2018-04-07T15:25:18.040Z,7.50
2018-04-07T15:27:46.362Z,7.50
2018-04-07T15:30:13.921Z,7.93
2018-04-07T15:32:41.473Z,8.90
2018-04-07T15:35:09.036Z,7.50
2018-04-07T15:37:37.354Z,8.40
2018-04-07T15:40:04.920Z,7.80
2018-04-07T15:42:32.477Z,8.10
2018-04-07T15:45:00.111Z,7.93
2018-04-07T15:47:27.625Z,8.17
2018-04-07T15:49:55.200Z,8.17
2018-04-07T15:52:22.752Z,7.47
2018-04-07T15:54:50.321Z,8.97
2018-04-07T15:57:17.873Z,7.97
2018-04-07T15:59:45.571Z,7.53
2018-04-07T16:02:13.330Z,8.60
2018-04-07T16:04:41.040Z,8.47
2018-04-07T16:07:08.600Z,8.63
2018-04-07T16:09:36.143Z,7.83
2018-04-07T16:12:03.714Z,8.20
2018-04-07T16:14:31.255Z,9.60
2018-04-07T16:16:59.595Z,10.43
2018-04-07T16:19:27.151Z,7.80
2018-04-07T16:21:54.734Z,10.70
2018-04-07T16:24:22.284Z,9.60
2018-04-07T16:26:49.849Z,9.00
2018-04-07T16:29:18.165Z,9.83
2018-04-07T16:31:46.495Z,8.90
2018-04-07T16:34:14.056Z,7.00
2018-04-07T16:36:41.635Z,9.50
2018-04-07T16:39:09.182Z,8.03
2018-04-07T16:41:36.781Z,7.43
2018-04-07T16:44:04.332Z,7.13
2018-04-07T16:46:32.661Z,6.50
2018-04-07T16:49:01.132Z,7.63
2018-04-07T16:51:28.704Z,7.53
2018-04-07T16:53:56.258Z,7.60
2018-04-07T16:56:23.920Z,7.27
2018-04-07T16:58:51.490Z,8.00
2018-04-07T17:01:19.113Z,7.00
2018-04-07T17:03:46.669Z,8.03
2018-04-07T17:06:15.177Z,7.87
2018-04-07T17:08:42.752Z,7.13
2018-04-07T17:11:11.754Z,7.03
2018-04-07T17:13:39.360Z,7.40
2018-04-07T17:16:06.920Z,7.20
2018-04-07T17:18:35.357Z,7.03
2018-04-07T17:21:02.917Z,7.33
2018-04-07T17:23:30.476Z,7.63
2018-04-07T17:25:58.020Z,6.63
2018-04-07T17:28:26.433Z,7.33
2018-04-07T17:30:53.980Z,7.00
2018-04-07T17:33:22.314Z,6.93
2018-04-07T17:35:49.866Z,7.10
2018-04-07T17:38:17.424Z,7.30
2018-04-07T17:40:44.980Z,6.60
2018-04-07T17:43:12.571Z,6.87
2018-04-07T17:45:40.122Z,7.40
2018-04-07T17:48:08.453Z,6.73
2018-04-07T17:50:36.005Z,7.20
2018-04-07T17:53:03.572Z,7.10
2018-04-07T17:55:31.126Z,6.90
2018-04-07T17:57:59.485Z,6.80
2018-04-07T18:00:27.036Z,6.00
2018-04-07T18:02:54.648Z,6.63
2018-04-07T18:05:22.196Z,6.53
2018-04-07T18:07:49.760Z,6.93
2018-04-07T18:10:17.308Z,7.37
2018-04-07T18:12:44.873Z,6.27
2018-04-07T18:15:12.436Z,6.47
2018-04-07T18:17:40.008Z,7.17
2018-04-07T18:20:08.324Z,6.33
2018-04-07T18:22:35.893Z,6.90
2018-04-07T18:25:03.509Z,7.50
2018-04-07T18:27:31.008Z,7.97
2018-04-07T18:29:59.340Z,7.30
2018-04-07T18:32:27.650Z,7.17
2018-04-07T18:34:55.217Z,6.60
2018-04-07T18:37:22.766Z,7.00
2018-04-07T18:39:50.329Z,7.00
2018-04-07T18:42:17.868Z,5.90
2018-04-07T18:44:46.187Z,6.80
2018-04-07T18:47:13.737Z,7.63
2018-04-07T18:49:41.332Z,7.00
2018-04-07T18:52:08.912Z,6.90
2018-04-07T18:54:36.479Z,7.97
2018-04-07T18:57:09.653Z,6.77
2018-04-07T18:59:37.226Z,7.27
2018-04-07T19:02:04.782Z,6.60
2018-04-07T19:04:33.112Z,6.73
2018-04-07T19:07:00.688Z,7.43
2018-04-07T19:09:28.337Z,6.70
2018-04-07T19:11:55.997Z,7.47
2018-04-07T19:14:23.588Z,7.70
2018-04-07T19:16:51.128Z,7.00
2018-04-07T19:19:18.697Z,8.30
2018-04-07T19:21:46.359Z,7.30
2018-04-07T19:24:14.816Z,8.13
2018-04-07T19:26:42.441Z,7.70
2018-04-07T19:29:10.047Z,7.90
2018-04-07T19:31:37.843Z,9.17
2018-04-07T19:34:05.490Z,8.60
2018-04-07T19:36:33.042Z,8.67
2018-04-07T19:39:01.755Z,8.73
2018-04-07T19:41:30.092Z,8.20
2018-04-07T19:43:57.652Z,9.53
2018-04-07T19:46:25.236Z,9.03
2018-04-07T19:48:52.784Z,8.93
2018-04-07T19:51:20.368Z,8.53
2018-04-07T19:53:48.032Z,9.77
2018-04-07T19:56:16.384Z,9.43
2018-04-07T19:58:44.764Z,9.20
2018-04-07T20:01:12.345Z,9.27
2018-04-07T20:03:40.658Z,9.10
2018-04-07T20:06:08.264Z,9.43
2018-04-07T20:08:35.820Z,9.80
2018-04-07T20:11:03.380Z,9.77
2018-04-07T20:13:30.935Z,11.90
2018-04-07T20:15:58.508Z,10.30
2018-04-07T20:18:26.820Z,10.10
2018-04-07T20:20:54.461Z,9.50
2018-04-07T20:23:22.882Z,9.83
2018-04-07T20:25:50.621Z,10.13
2018-04-07T20:28:19.048Z,10.20
2018-04-07T20:30:46.612Z,10.00
2018-04-07T20:33:14.180Z,10.17
2018-04-07T20:35:41.760Z,10.53
2018-04-07T20:38:09.447Z,11.03
2018-04-07T20:40:37.070Z,10.53
2018-04-07T20:43:13.458Z,10.40
2018-04-07T20:45:41.156Z,10.83
2018-04-07T20:48:08.737Z,10.80
2018-04-07T20:50:36.312Z,11.37
2018-04-07T20:53:03.941Z,11.10
2018-04-07T20:55:31.633Z,10.40
2018-04-07T20:57:59.949Z,10.07
2018-04-07T21:00:27.549Z,12.07
2018-04-07T21:02:55.100Z,11.43
2018-04-07T21:05:22.652Z,11.27
2018-04-07T21:07:50.217Z,11.60
2018-04-07T21:10:17.778Z,11.67
2018-04-07T21:12:46.115Z,12.30
2018-04-07T21:15:13.763Z,12.73
2018-04-07T21:17:41.411Z,12.00
2018-04-07T21:20:09.970Z,12.40
2018-04-07T21:22:38.529Z,12.23
2018-04-07T21:25:06.168Z,13.10
2018-04-07T21:27:33.769Z,13.13
2018-04-07T21:30:01.464Z,13.00
2018-04-07T21:32:29.131Z,12.80
2018-04-07T21:34:56.693Z,12.27
2018-04-07T21:37:24.265Z,12.17
2018-04-07T21:39:51.818Z,14.80
2018-04-07T21:42:20.163Z,12.03
2018-04-07T21:44:48.528Z,12.80
2018-04-07T21:47:16.096Z,13.50
2018-04-07T21:49:43.639Z,13.83
2018-04-07T21:52:12.212Z,13.50
2018-04-07T21:54:39.766Z,13.90
2018-04-07T21:57:07.340Z,14.10
2018-04-07T21:59:34.887Z,12.70
2018-04-07T22:02:02.465Z,14.33
2018-04-07T22:04:30.015Z,12.83
2018-04-07T22:06:57.585Z,13.57
2018-04-07T22:09:25.128Z,13.73
2018-04-07T22:11:52.716Z,12.93
2018-04-07T22:14:21.032Z,13.10
2018-04-07T22:16:48.578Z,13.00
2018-04-07T22:19:16.148Z,13.53
2018-04-07T22:21:43.708Z,13.73
2018-04-07T22:24:12.045Z,14.73
2018-04-07T22:26:39.593Z,13.20
2018-04-07T22:29:07.152Z,12.20
2018-04-07T22:31:35.472Z,13.47
2018-04-07T22:34:03.040Z,12.93
2018-04-07T22:36:30.590Z,13.17
2018-04-07T22:38:58.164Z,13.73
2018-04-07T22:41:25.716Z,12.80
2018-04-07T22:43:54.051Z,13.30
2018-04-07T22:46:21.601Z,13.50
2018-04-07T22:48:49.173Z,13.57
2018-04-07T22:51:16.739Z,13.33
2018-04-07T22:53:44.306Z,12.60
2018-04-07T22:56:12.627Z,12.40
2018-04-07T22:58:40.208Z,12.90
2018-04-07T23:01:07.760Z,12.73
2018-04-07T23:03:35.324Z,13.83
2018-04-07T23:06:02.872Z,12.87
2018-04-07T23:08:31.216Z,13.57
2018-04-07T23:10:58.764Z,12.93
2018-04-07T23:13:26.331Z,12.07
2018-04-07T23:15:53.882Z,12.77
2018-04-07T23:18:22.225Z,13.53
2018-04-07T23:20:49.785Z,13.27
2018-04-07T23:23:17.355Z,11.37
2018-04-07T23:25:44.912Z,13.00
2018-04-07T23:28:12.476Z,13.07
2018-04-07T23:30:40.046Z,12.63
2018-04-07T23:33:07.597Z,12.13
2018-04-07T23:35:35.939Z,11.60
2018-04-07T23:38:03.492Z,11.90
2018-04-07T23:40:31.056Z,13.23
2018-04-07T23:42:58.608Z,12.97
2018-04-07T23:45:26.944Z,11.73
2018-04-07T23:47:54.489Z,11.30
2018-04-07T23:50:22.052Z,12.50
2018-04-07T23:52:49.601Z,13.13
2018-04-07T23:55:17.163Z,11.07
2018-04-07T23:57:44.715Z,12.10
